sensor_id;sensor_type;location;lat;lon;timestamp;P1;durP1;ratioP1;P2;durP2;ratioP2
7737;SDS011;29398;45.328;5.558;2024-01-27T00:00:32;4.93;;;4.22;;
7737;SDS011;29398;45.328;5.558;2024-01-27T00:01:34;4.82;;;4.38;;
7737;SDS011;29398;45.328;5.558;2024-01-27T00:02:35;6.47;;;4.68;;
7737;SDS011;29398;45.328;5.558;2024-01-27T00:03:37;7.53;;;5.38;;
7737;SDS011;29398;45.328;5.558;2024-01-27T00:04:38;5.43;;;4.93;;
7737;SDS011;29398;45.328;5.558;2024-01-27T00:05:42;7.93;;;4.60;;
7737;SDS011;29398;45.328;5.558;2024-01-27T00:06:43;5.60;;;4.75;;
7737;SDS011;29398;45.328;5.558;2024-01-27T00:07:44;5.97;;;4.00;;
7737;SDS011;29398;45.328;5.558;2024-01-27T00:08:46;5.13;;;4.60;;
7737;SDS011;29398;45.328;5.558;2024-01-27T00:09:47;5.28;;;4.55;;
7737;SDS011;29398;45.328;5.558;2024-01-27T00:10:50;5.25;;;4.45;;
7737;SDS011;29398;45.328;5.558;2024-01-27T00:11:51;6.15;;;4.70;;
7737;SDS011;29398;45.328;5.558;2024-01-27T00:12:53;5.00;;;4.32;;
7737;SDS011;29398;45.328;5.558;2024-01-27T00:13:54;5.35;;;4.45;;
7737;SDS011;29398;45.328;5.558;2024-01-27T00:14:56;6.00;;;4.57;;
7737;SDS011;29398;45.328;5.558;2024-01-27T00:15:57;5.85;;;5.25;;
7737;SDS011;29398;45.328;5.558;2024-01-27T00:16:59;5.13;;;4.63;;
7737;SDS011;29398;45.328;5.558;2024-01-27T00:18:00;5.20;;;4.53;;
7737;SDS011;29398;45.328;5.558;2024-01-27T00:19:02;7.35;;;5.35;;
7737;SDS011;29398;45.328;5.558;2024-01-27T00:20:03;5.82;;;5.00;;
7737;SDS011;29398;45.328;5.558;2024-01-27T00:21:07;5.43;;;4.93;;
7737;SDS011;29398;45.328;5.558;2024-01-27T00:22:09;5.50;;;4.70;;
7737;SDS011;29398;45.328;5.558;2024-01-27T00:23:10;6.03;;;4.70;;
7737;SDS011;29398;45.328;5.558;2024-01-27T00:24:13;6.47;;;5.00;;
7737;SDS011;29398;45.328;5.558;2024-01-27T00:25:14;6.57;;;5.00;;
7737;SDS011;29398;45.328;5.558;2024-01-27T00:26:16;5.38;;;4.28;;
7737;SDS011;29398;45.328;5.558;2024-01-27T00:27:17;5.43;;;4.55;;
7737;SDS011;29398;45.328;5.558;2024-01-27T00:28:19;5.10;;;4.60;;
7737;SDS011;29398;45.328;5.558;2024-01-27T00:29:21;5.95;;;4.53;;
7737;SDS011;29398;45.328;5.558;2024-01-27T00:30:23;8.60;;;4.65;;
7737;SDS011;29398;45.328;5.558;2024-01-27T00:31:25;6.30;;;5.18;;
7737;SDS011;29398;45.328;5.558;2024-01-27T00:32:27;5.32;;;4.28;;
7737;SDS011;29398;45.328;5.558;2024-01-27T00:33:28;5.63;;;4.55;;
7737;SDS011;29398;45.328;5.558;2024-01-27T00:34:30;5.60;;;5.03;;
7737;SDS011;29398;45.328;5.558;2024-01-27T00:35:31;6.78;;;5.13;;
7737;SDS011;29398;45.328;5.558;2024-01-27T00:36:33;4.97;;;4.47;;
7737;SDS011;29398;45.328;5.558;2024-01-27T00:37:37;5.00;;;4.10;;
7737;SDS011;29398;45.328;5.558;2024-01-27T00:38:38;6.07;;;4.90;;
7737;SDS011;29398;45.328;5.558;2024-01-27T00:39:40;5.32;;;4.65;;
7737;SDS011;29398;45.328;5.558;2024-01-27T00:40:41;5.45;;;4.45;;
7737;SDS011;29398;45.328;5.558;2024-01-27T00:41:43;5.18;;;4.68;;
7737;SDS011;29398;45.328;5.558;2024-01-27T00:42:44;6.13;;;5.38;;
7737;SDS011;29398;45.328;5.558;2024-01-27T00:43:46;5.63;;;4.95;;
7737;SDS011;29398;45.328;5.558;2024-01-27T00:44:47;5.10;;;4.60;;
7737;SDS011;29398;45.328;5.558;2024-01-27T00:45:48;4.85;;;4.30;;
7737;SDS011;29398;45.328;5.558;2024-01-27T00:46:50;5.15;;;4.25;;
7737;SDS011;29398;45.328;5.558;2024-01-27T00:47:51;5.25;;;4.32;;
7737;SDS011;29398;45.328;5.558;2024-01-27T00:48:53;5.70;;;4.50;;
7737;SDS011;29398;45.328;5.558;2024-01-27T00:49:54;4.70;;;4.28;;
7737;SDS011;29398;45.328;5.558;2024-01-27T00:50:57;5.30;;;4.68;;
7737;SDS011;29398;45.328;5.558;2024-01-27T00:51:59;5.25;;;4.13;;
7737;SDS011;29398;45.328;5.558;2024-01-27T00:53:01;4.65;;;4.25;;
7737;SDS011;29398;45.328;5.558;2024-01-27T00:54:02;5.88;;;4.80;;
7737;SDS011;29398;45.328;5.558;2024-01-27T00:55:05;5.32;;;4.45;;
7737;SDS011;29398;45.328;5.558;2024-01-27T00:56:06;5.50;;;4.45;;
7737;SDS011;29398;45.328;5.558;2024-01-27T00:57:08;6.18;;;4.32;;
7737;SDS011;29398;45.328;5.558;2024-01-27T00:58:09;5.57;;;4.57;;
7737;SDS011;29398;45.328;5.558;2024-01-27T00:59:11;5.82;;;3.85;;
7737;SDS011;29398;45.328;5.558;2024-01-27T01:00:13;4.55;;;4.03;;
7737;SDS011;29398;45.328;5.558;2024-01-27T01:01:15;6.00;;;4.50;;
7737;SDS011;29398;45.328;5.558;2024-01-27T01:02:16;4.43;;;4.03;;
7737;SDS011;29398;45.328;5.558;2024-01-27T01:03:18;5.03;;;4.55;;
7737;SDS011;29398;45.328;5.558;2024-01-27T01:04:20;4.80;;;4.30;;
7737;SDS011;29398;45.328;5.558;2024-01-27T01:05:21;7.20;;;4.63;;
7737;SDS011;29398;45.328;5.558;2024-01-27T01:06:23;4.57;;;4.18;;
7737;SDS011;29398;45.328;5.558;2024-01-27T01:07:25;5.30;;;4.30;;
7737;SDS011;29398;45.328;5.558;2024-01-27T01:08:27;4.97;;;4.43;;
7737;SDS011;29398;45.328;5.558;2024-01-27T01:09:29;6.15;;;4.68;;
7737;SDS011;29398;45.328;5.558;2024-01-27T01:10:31;5.32;;;4.53;;
7737;SDS011;29398;45.328;5.558;2024-01-27T01:11:32;5.25;;;4.75;;
7737;SDS011;29398;45.328;5.558;2024-01-27T01:12:35;5.47;;;4.60;;
7737;SDS011;29398;45.328;5.558;2024-01-27T01:13:36;5.60;;;5.00;;
7737;SDS011;29398;45.328;5.558;2024-01-27T01:14:38;7.57;;;5.63;;
7737;SDS011;29398;45.328;5.558;2024-01-27T01:15:40;5.97;;;5.13;;
7737;SDS011;29398;45.328;5.558;2024-01-27T01:16:42;5.53;;;4.90;;
7737;SDS011;29398;45.328;5.558;2024-01-27T01:17:43;7.40;;;6.13;;
7737;SDS011;29398;45.328;5.558;2024-01-27T01:18:45;7.45;;;6.53;;
7737;SDS011;29398;45.328;5.558;2024-01-27T01:19:46;7.18;;;6.13;;
7737;SDS011;29398;45.328;5.558;2024-01-27T01:20:48;6.40;;;5.80;;
7737;SDS011;29398;45.328;5.558;2024-01-27T01:21:49;8.00;;;5.88;;
7737;SDS011;29398;45.328;5.558;2024-01-27T01:22:51;6.80;;;6.10;;
7737;SDS011;29398;45.328;5.558;2024-01-27T01:23:53;7.47;;;6.80;;
7737;SDS011;29398;45.328;5.558;2024-01-27T01:24:55;7.30;;;6.60;;
7737;SDS011;29398;45.328;5.558;2024-01-27T01:25:57;7.53;;;6.47;;
7737;SDS011;29398;45.328;5.558;2024-01-27T01:26:58;8.75;;;7.10;;
7737;SDS011;29398;45.328;5.558;2024-01-27T01:28:00;7.32;;;6.57;;
7737;SDS011;29398;45.328;5.558;2024-01-27T01:29:01;7.93;;;7.15;;
7737;SDS011;29398;45.328;5.558;2024-01-27T01:30:04;7.95;;;7.15;;
7737;SDS011;29398;45.328;5.558;2024-01-27T01:31:06;7.82;;;6.63;;
7737;SDS011;29398;45.328;5.558;2024-01-27T01:32:08;6.80;;;6.13;;
7737;SDS011;29398;45.328;5.558;2024-01-27T01:33:10;7.65;;;6.90;;
7737;SDS011;29398;45.328;5.558;2024-01-27T01:34:12;7.25;;;6.55;;
7737;SDS011;29398;45.328;5.558;2024-01-27T01:35:13;6.45;;;5.82;;
7737;SDS011;29398;45.328;5.558;2024-01-27T01:36:15;7.50;;;6.57;;
7737;SDS011;29398;45.328;5.558;2024-01-27T01:37:16;7.28;;;6.57;;
7737;SDS011;29398;45.328;5.558;2024-01-27T01:38:19;6.65;;;6.05;;
7737;SDS011;29398;45.328;5.558;2024-01-27T01:39:20;6.70;;;6.07;;
7737;SDS011;29398;45.328;5.558;2024-01-27T01:40:22;6.80;;;6.20;;
7737;SDS011;29398;45.328;5.558;2024-01-27T01:41:23;6.18;;;5.57;;
7737;SDS011;29398;45.328;5.558;2024-01-27T01:42:25;6.50;;;5.90;;
7737;SDS011;29398;45.328;5.558;2024-01-27T01:43:27;6.93;;;6.22;;
7737;SDS011;29398;45.328;5.558;2024-01-27T01:44:29;6.90;;;6.20;;
7737;SDS011;29398;45.328;5.558;2024-01-27T01:45:32;6.97;;;6.32;;
7737;SDS011;29398;45.328;5.558;2024-01-27T01:46:33;7.60;;;5.90;;
7737;SDS011;29398;45.328;5.558;2024-01-27T01:47:35;7.13;;;6.43;;
7737;SDS011;29398;45.328;5.558;2024-01-27T01:48:36;7.00;;;6.30;;
7737;SDS011;29398;45.328;5.558;2024-01-27T01:49:37;6.90;;;6.15;;
7737;SDS011;29398;45.328;5.558;2024-01-27T01:50:39;7.13;;;6.43;;
7737;SDS011;29398;45.328;5.558;2024-01-27T01:51:41;6.55;;;5.95;;
7737;SDS011;29398;45.328;5.558;2024-01-27T01:52:43;6.63;;;5.97;;
7737;SDS011;29398;45.328;5.558;2024-01-27T01:53:47;6.53;;;5.93;;
7737;SDS011;29398;45.328;5.558;2024-01-27T01:54:50;6.40;;;5.80;;
7737;SDS011;29398;45.328;5.558;2024-01-27T01:55:51;6.82;;;6.10;;
7737;SDS011;29398;45.328;5.558;2024-01-27T01:56:54;6.78;;;5.75;;
7737;SDS011;29398;45.328;5.558;2024-01-27T01:57:55;6.30;;;5.70;;
7737;SDS011;29398;45.328;5.558;2024-01-27T01:58:56;7.25;;;5.93;;
7737;SDS011;29398;45.328;5.558;2024-01-27T01:59:58;6.10;;;5.50;;
7737;SDS011;29398;45.328;5.558;2024-01-27T02:01:00;7.18;;;6.13;;
7737;SDS011;29398;45.328;5.558;2024-01-27T02:02:02;6.82;;;5.97;;
7737;SDS011;29398;45.328;5.558;2024-01-27T02:03:04;6.68;;;6.00;;
7737;SDS011;29398;45.328;5.558;2024-01-27T02:04:06;6.85;;;6.18;;
7737;SDS011;29398;45.328;5.558;2024-01-27T02:05:07;8.05;;;6.82;;
7737;SDS011;29398;45.328;5.558;2024-01-27T02:06:10;7.68;;;6.28;;
7737;SDS011;29398;45.328;5.558;2024-01-27T02:07:11;6.90;;;6.05;;
7737;SDS011;29398;45.328;5.558;2024-01-27T02:08:14;7.85;;;6.88;;
7737;SDS011;29398;45.328;5.558;2024-01-27T02:09:16;6.72;;;6.03;;
7737;SDS011;29398;45.328;5.558;2024-01-27T02:10:18;8.13;;;6.03;;
7737;SDS011;29398;45.328;5.558;2024-01-27T02:11:19;7.22;;;5.90;;
7737;SDS011;29398;45.328;5.558;2024-01-27T02:12:20;7.18;;;6.45;;
7737;SDS011;29398;45.328;5.558;2024-01-27T02:13:23;7.20;;;6.50;;
7737;SDS011;29398;45.328;5.558;2024-01-27T02:14:25;8.90;;;6.35;;
7737;SDS011;29398;45.328;5.558;2024-01-27T02:15:27;6.30;;;5.70;;
7737;SDS011;29398;45.328;5.558;2024-01-27T02:16:28;7.07;;;6.38;;
7737;SDS011;29398;45.328;5.558;2024-01-27T02:17:30;7.45;;;6.13;;
7737;SDS011;29398;45.328;5.558;2024-01-27T02:18:32;7.20;;;6.53;;
7737;SDS011;29398;45.328;5.558;2024-01-27T02:19:33;7.55;;;6.85;;
7737;SDS011;29398;45.328;5.558;2024-01-27T02:20:35;7.15;;;6.28;;
7737;SDS011;29398;45.328;5.558;2024-01-27T02:21:37;8.02;;;6.75;;
7737;SDS011;29398;45.328;5.558;2024-01-27T02:22:40;8.98;;;6.57;;
7737;SDS011;29398;45.328;5.558;2024-01-27T02:23:41;7.25;;;6.55;;
7737;SDS011;29398;45.328;5.558;2024-01-27T02:24:44;7.70;;;6.85;;
7737;SDS011;29398;45.328;5.558;2024-01-27T02:25:46;7.75;;;7.03;;
7737;SDS011;29398;45.328;5.558;2024-01-27T02:26:50;9.05;;;7.30;;
7737;SDS011;29398;45.328;5.558;2024-01-27T02:27:51;12.48;;;8.20;;
7737;SDS011;29398;45.328;5.558;2024-01-27T02:28:53;8.85;;;7.25;;
7737;SDS011;29398;45.328;5.558;2024-01-27T02:29:54;9.13;;;8.07;;
7737;SDS011;29398;45.328;5.558;2024-01-27T02:30:56;9.02;;;7.80;;
7737;SDS011;29398;45.328;5.558;2024-01-27T02:31:57;9.70;;;7.88;;
7737;SDS011;29398;45.328;5.558;2024-01-27T02:32:59;9.60;;;8.20;;
7737;SDS011;29398;45.328;5.558;2024-01-27T02:34:00;8.50;;;7.65;;
7737;SDS011;29398;45.328;5.558;2024-01-27T02:35:02;9.38;;;8.15;;
7737;SDS011;29398;45.328;5.558;2024-01-27T02:36:04;8.15;;;6.82;;
7737;SDS011;29398;45.328;5.558;2024-01-27T02:37:05;8.27;;;7.05;;
7737;SDS011;29398;45.328;5.558;2024-01-27T02:38:07;8.45;;;7.65;;
7737;SDS011;29398;45.328;5.558;2024-01-27T02:39:09;8.68;;;7.20;;
7737;SDS011;29398;45.328;5.558;2024-01-27T02:40:12;10.40;;;7.63;;
7737;SDS011;29398;45.328;5.558;2024-01-27T02:41:14;11.98;;;7.72;;
7737;SDS011;29398;45.328;5.558;2024-01-27T02:42:16;9.07;;;7.60;;
7737;SDS011;29398;45.328;5.558;2024-01-27T02:43:17;8.73;;;7.70;;
7737;SDS011;29398;45.328;5.558;2024-01-27T02:44:19;8.90;;;7.32;;
7737;SDS011;29398;45.328;5.558;2024-01-27T02:45:20;10.25;;;6.65;;
7737;SDS011;29398;45.328;5.558;2024-01-27T02:46:22;7.45;;;6.70;;
7737;SDS011;29398;45.328;5.558;2024-01-27T02:47:23;8.45;;;7.50;;
7737;SDS011;29398;45.328;5.558;2024-01-27T02:48:25;7.80;;;7.00;;
7737;SDS011;29398;45.328;5.558;2024-01-27T02:49:26;8.00;;;6.72;;
7737;SDS011;29398;45.328;5.558;2024-01-27T02:50:28;7.55;;;6.75;;
7737;SDS011;29398;45.328;5.558;2024-01-27T02:51:29;7.97;;;7.18;;
7737;SDS011;29398;45.328;5.558;2024-01-27T02:52:32;7.45;;;6.63;;
7737;SDS011;29398;45.328;5.558;2024-01-27T02:53:33;8.45;;;6.95;;
7737;SDS011;29398;45.328;5.558;2024-01-27T02:54:35;9.63;;;7.90;;
7737;SDS011;29398;45.328;5.558;2024-01-27T02:55:37;8.13;;;6.80;;
7737;SDS011;29398;45.328;5.558;2024-01-27T02:56:39;10.23;;;6.93;;
7737;SDS011;29398;45.328;5.558;2024-01-27T02:57:40;8.82;;;7.57;;
7737;SDS011;29398;45.328;5.558;2024-01-27T02:58:42;7.72;;;6.82;;
7737;SDS011;29398;45.328;5.558;2024-01-27T02:59:44;7.80;;;7.00;;
7737;SDS011;29398;45.328;5.558;2024-01-27T03:00:47;8.05;;;7.25;;
7737;SDS011;29398;45.328;5.558;2024-01-27T03:01:48;8.07;;;7.28;;
7737;SDS011;29398;45.328;5.558;2024-01-27T03:02:50;10.93;;;7.13;;
7737;SDS011;29398;45.328;5.558;2024-01-27T03:03:51;8.63;;;7.05;;
7737;SDS011;29398;45.328;5.558;2024-01-27T03:04:53;8.10;;;7.30;;
7737;SDS011;29398;45.328;5.558;2024-01-27T03:05:54;8.35;;;7.32;;
7737;SDS011;29398;45.328;5.558;2024-01-27T03:06:56;7.53;;;6.78;;
7737;SDS011;29398;45.328;5.558;2024-01-27T03:07:57;7.70;;;6.95;;
7737;SDS011;29398;45.328;5.558;2024-01-27T03:08:59;9.68;;;7.25;;
7737;SDS011;29398;45.328;5.558;2024-01-27T03:10:00;7.25;;;6.55;;
7737;SDS011;29398;45.328;5.558;2024-01-27T03:11:03;7.72;;;6.93;;
7737;SDS011;29398;45.328;5.558;2024-01-27T03:12:05;7.45;;;6.53;;
7737;SDS011;29398;45.328;5.558;2024-01-27T03:13:06;7.25;;;6.55;;
7737;SDS011;29398;45.328;5.558;2024-01-27T03:14:08;7.40;;;6.70;;
7737;SDS011;29398;45.328;5.558;2024-01-27T03:15:10;6.88;;;6.18;;
7737;SDS011;29398;45.328;5.558;2024-01-27T03:16:12;6.40;;;5.70;;
7737;SDS011;29398;45.328;5.558;2024-01-27T03:17:13;7.18;;;6.47;;
7737;SDS011;29398;45.328;5.558;2024-01-27T03:18:14;6.80;;;6.15;;
7737;SDS011;29398;45.328;5.558;2024-01-27T03:19:17;7.32;;;5.93;;
7737;SDS011;29398;45.328;5.558;2024-01-27T03:20:18;7.03;;;6.22;;
7737;SDS011;29398;45.328;5.558;2024-01-27T03:21:20;6.78;;;6.05;;
7737;SDS011;29398;45.328;5.558;2024-01-27T03:22:21;6.93;;;5.90;;
7737;SDS011;29398;45.328;5.558;2024-01-27T03:23:23;7.75;;;6.85;;
7737;SDS011;29398;45.328;5.558;2024-01-27T03:24:24;9.45;;;6.65;;
7737;SDS011;29398;45.328;5.558;2024-01-27T03:25:26;7.32;;;6.25;;
7737;SDS011;29398;45.328;5.558;2024-01-27T03:26:29;6.75;;;6.07;;
7737;SDS011;29398;45.328;5.558;2024-01-27T03:27:30;7.80;;;6.38;;
7737;SDS011;29398;45.328;5.558;2024-01-27T03:28:32;7.28;;;6.32;;
7737;SDS011;29398;45.328;5.558;2024-01-27T03:29:33;7.25;;;6.55;;
7737;SDS011;29398;45.328;5.558;2024-01-27T03:30:35;7.65;;;6.60;;
7737;SDS011;29398;45.328;5.558;2024-01-27T03:31:36;7.35;;;6.40;;
7737;SDS011;29398;45.328;5.558;2024-01-27T03:32:38;8.75;;;6.68;;
7737;SDS011;29398;45.328;5.558;2024-01-27T03:33:39;6.57;;;5.97;;
7737;SDS011;29398;45.328;5.558;2024-01-27T03:34:43;7.10;;;6.40;;
7737;SDS011;29398;45.328;5.558;2024-01-27T03:35:45;7.28;;;6.28;;
7737;SDS011;29398;45.328;5.558;2024-01-27T03:36:47;9.35;;;6.50;;
7737;SDS011;29398;45.328;5.558;2024-01-27T03:37:50;8.05;;;6.32;;
7737;SDS011;29398;45.328;5.558;2024-01-27T03:38:51;8.10;;;6.82;;
7737;SDS011;29398;45.328;5.558;2024-01-27T03:39:53;8.90;;;6.85;;
7737;SDS011;29398;45.328;5.558;2024-01-27T03:40:55;7.47;;;6.68;;
7737;SDS011;29398;45.328;5.558;2024-01-27T03:42:00;6.53;;;5.80;;
7737;SDS011;29398;45.328;5.558;2024-01-27T03:43:01;9.77;;;7.32;;
7737;SDS011;29398;45.328;5.558;2024-01-27T03:44:03;8.02;;;6.30;;
7737;SDS011;29398;45.328;5.558;2024-01-27T03:45:04;7.97;;;6.55;;
7737;SDS011;29398;45.328;5.558;2024-01-27T03:46:07;8.77;;;6.85;;
7737;SDS011;29398;45.328;5.558;2024-01-27T03:47:08;7.32;;;6.63;;
7737;SDS011;29398;45.328;5.558;2024-01-27T03:48:10;6.95;;;6.30;;
7737;SDS011;29398;45.328;5.558;2024-01-27T03:49:11;7.07;;;6.25;;
7737;SDS011;29398;45.328;5.558;2024-01-27T03:50:13;7.72;;;6.93;;
7737;SDS011;29398;45.328;5.558;2024-01-27T03:51:14;8.35;;;7.28;;
7737;SDS011;29398;45.328;5.558;2024-01-27T03:52:16;7.57;;;6.70;;
7737;SDS011;29398;45.328;5.558;2024-01-27T03:53:17;7.85;;;6.43;;
7737;SDS011;29398;45.328;5.558;2024-01-27T03:54:19;6.60;;;6.00;;
7737;SDS011;29398;45.328;5.558;2024-01-27T03:55:20;8.10;;;7.30;;
7737;SDS011;29398;45.328;5.558;2024-01-27T03:56:22;9.00;;;6.28;;
7737;SDS011;29398;45.328;5.558;2024-01-27T03:57:25;8.13;;;7.32;;
7737;SDS011;29398;45.328;5.558;2024-01-27T03:58:27;8.52;;;6.88;;
7737;SDS011;29398;45.328;5.558;2024-01-27T03:59:28;8.10;;;7.07;;
7737;SDS011;29398;45.328;5.558;2024-01-27T04:00:30;8.98;;;7.20;;
7737;SDS011;29398;45.328;5.558;2024-01-27T04:01:33;8.85;;;7.05;;
7737;SDS011;29398;45.328;5.558;2024-01-27T04:02:35;7.65;;;6.88;;
7737;SDS011;29398;45.328;5.558;2024-01-27T04:03:36;9.50;;;7.05;;
7737;SDS011;29398;45.328;5.558;2024-01-27T04:04:37;8.02;;;7.22;;
7737;SDS011;29398;45.328;5.558;2024-01-27T04:05:39;7.85;;;6.57;;
7737;SDS011;29398;45.328;5.558;2024-01-27T04:06:40;9.07;;;6.78;;
7737;SDS011;29398;45.328;5.558;2024-01-27T04:07:42;7.03;;;6.32;;
7737;SDS011;29398;45.328;5.558;2024-01-27T04:08:43;7.20;;;6.50;;
7737;SDS011;29398;45.328;5.558;2024-01-27T04:09:45;7.22;;;6.53;;
7737;SDS011;29398;45.328;5.558;2024-01-27T04:10:46;7.53;;;6.70;;
7737;SDS011;29398;45.328;5.558;2024-01-27T04:11:48;6.22;;;5.63;;
7737;SDS011;29398;45.328;5.558;2024-01-27T04:12:51;6.30;;;5.70;;
7737;SDS011;29398;45.328;5.558;2024-01-27T04:13:53;6.93;;;6.20;;
7737;SDS011;29398;45.328;5.558;2024-01-27T04:14:54;6.93;;;6.22;;
7737;SDS011;29398;45.328;5.558;2024-01-27T04:15:56;6.50;;;5.90;;
7737;SDS011;29398;45.328;5.558;2024-01-27T04:17:01;5.95;;;5.35;;
7737;SDS011;29398;45.328;5.558;2024-01-27T04:18:04;6.05;;;5.45;;
7737;SDS011;29398;45.328;5.558;2024-01-27T04:19:05;6.07;;;5.47;;
7737;SDS011;29398;45.328;5.558;2024-01-27T04:20:08;6.70;;;5.95;;
7737;SDS011;29398;45.328;5.558;2024-01-27T04:21:10;8.50;;;5.57;;
7737;SDS011;29398;45.328;5.558;2024-01-27T04:22:11;7.25;;;5.65;;
7737;SDS011;29398;45.328;5.558;2024-01-27T04:23:13;6.20;;;5.60;;
7737;SDS011;29398;45.328;5.558;2024-01-27T04:24:14;7.03;;;5.10;;
7737;SDS011;29398;45.328;5.558;2024-01-27T04:25:16;6.15;;;5.53;;
7737;SDS011;29398;45.328;5.558;2024-01-27T04:26:17;6.32;;;5.15;;
7737;SDS011;29398;45.328;5.558;2024-01-27T04:27:19;5.75;;;5.18;;
7737;SDS011;29398;45.328;5.558;2024-01-27T04:28:22;5.72;;;5.13;;
7737;SDS011;29398;45.328;5.558;2024-01-27T04:29:24;5.68;;;5.05;;
7737;SDS011;29398;45.328;5.558;2024-01-27T04:30:25;7.93;;;5.43;;
7737;SDS011;29398;45.328;5.558;2024-01-27T04:31:27;6.20;;;5.60;;
7737;SDS011;29398;45.328;5.558;2024-01-27T04:32:28;5.90;;;5.30;;
7737;SDS011;29398;45.328;5.558;2024-01-27T04:33:30;5.70;;;5.18;;
7737;SDS011;29398;45.328;5.558;2024-01-27T04:34:31;6.88;;;5.97;;
7737;SDS011;29398;45.328;5.558;2024-01-27T04:35:33;6.00;;;5.40;;
7737;SDS011;29398;45.328;5.558;2024-01-27T04:36:34;6.07;;;5.47;;
7737;SDS011;29398;45.328;5.558;2024-01-27T04:37:37;6.68;;;5.28;;
7737;SDS011;29398;45.328;5.558;2024-01-27T04:38:38;6.05;;;5.10;;
7737;SDS011;29398;45.328;5.558;2024-01-27T04:39:40;6.57;;;5.80;;
7737;SDS011;29398;45.328;5.558;2024-01-27T04:40:41;6.75;;;5.57;;
7737;SDS011;29398;45.328;5.558;2024-01-27T04:41:45;6.93;;;5.30;;
7737;SDS011;29398;45.328;5.558;2024-01-27T04:42:46;6.40;;;5.80;;
7737;SDS011;29398;45.328;5.558;2024-01-27T04:43:49;8.57;;;5.90;;
7737;SDS011;29398;45.328;5.558;2024-01-27T04:44:50;6.03;;;5.43;;
7737;SDS011;29398;45.328;5.558;2024-01-27T04:45:52;5.80;;;5.13;;
7737;SDS011;29398;45.328;5.558;2024-01-27T04:46:53;6.18;;;5.57;;
7737;SDS011;29398;45.328;5.558;2024-01-27T04:47:55;6.00;;;5.40;;
7737;SDS011;29398;45.328;5.558;2024-01-27T04:48:56;5.05;;;4.57;;
7737;SDS011;29398;45.328;5.558;2024-01-27T04:49:57;5.63;;;5.13;;
7737;SDS011;29398;45.328;5.558;2024-01-27T04:50:59;5.53;;;5.00;;
7737;SDS011;29398;45.328;5.558;2024-01-27T04:52:00;5.53;;;5.03;;
7737;SDS011;29398;45.328;5.558;2024-01-27T04:53:02;5.85;;;5.25;;
7737;SDS011;29398;45.328;5.558;2024-01-27T04:54:04;7.38;;;5.30;;
7737;SDS011;29398;45.328;5.558;2024-01-27T04:55:06;6.13;;;5.15;;
7737;SDS011;29398;45.328;5.558;2024-01-27T04:56:07;7.20;;;5.90;;
7737;SDS011;29398;45.328;5.558;2024-01-27T04:57:09;6.20;;;5.60;;
7737;SDS011;29398;45.328;5.558;2024-01-27T04:58:11;5.82;;;5.30;;
7737;SDS011;29398;45.328;5.558;2024-01-27T04:59:14;5.72;;;5.22;;
7737;SDS011;29398;45.328;5.558;2024-01-27T05:00:15;6.10;;;5.50;;
7737;SDS011;29398;45.328;5.558;2024-01-27T05:01:17;5.88;;;5.28;;
7737;SDS011;29398;45.328;5.558;2024-01-27T05:02:19;5.22;;;4.72;;
7737;SDS011;29398;45.328;5.558;2024-01-27T05:03:21;5.38;;;4.88;;
7737;SDS011;29398;45.328;5.558;2024-01-27T05:04:22;5.78;;;5.20;;
7737;SDS011;29398;45.328;5.558;2024-01-27T05:05:26;5.43;;;4.80;;
7737;SDS011;29398;45.328;5.558;2024-01-27T05:06:27;6.72;;;5.18;;
7737;SDS011;29398;45.328;5.558;2024-01-27T05:07:29;5.65;;;4.68;;
7737;SDS011;29398;45.328;5.558;2024-01-27T05:08:30;5.40;;;4.90;;
7737;SDS011;29398;45.328;5.558;2024-01-27T05:09:33;5.22;;;4.78;;
7737;SDS011;29398;45.328;5.558;2024-01-27T05:10:35;5.95;;;5.35;;
7737;SDS011;29398;45.328;5.558;2024-01-27T05:11:37;6.03;;;5.07;;
7737;SDS011;29398;45.328;5.558;2024-01-27T05:12:38;5.07;;;4.57;;
7737;SDS011;29398;45.328;5.558;2024-01-27T05:13:40;5.07;;;4.40;;
7737;SDS011;29398;45.328;5.558;2024-01-27T05:14:44;7.20;;;5.75;;
7737;SDS011;29398;45.328;5.558;2024-01-27T05:15:45;5.40;;;4.90;;
7737;SDS011;29398;45.328;5.558;2024-01-27T05:16:48;6.15;;;4.68;;
7737;SDS011;29398;45.328;5.558;2024-01-27T05:17:49;5.38;;;4.70;;
7737;SDS011;29398;45.328;5.558;2024-01-27T05:18:51;5.47;;;4.97;;
7737;SDS011;29398;45.328;5.558;2024-01-27T05:19:52;5.40;;;4.85;;
7737;SDS011;29398;45.328;5.558;2024-01-27T05:20:54;5.28;;;4.78;;
7737;SDS011;29398;45.328;5.558;2024-01-27T05:21:55;5.82;;;4.68;;
7737;SDS011;29398;45.328;5.558;2024-01-27T05:22:57;4.88;;;4.47;;
7737;SDS011;29398;45.328;5.558;2024-01-27T05:23:58;5.60;;;5.10;;
7737;SDS011;29398;45.328;5.558;2024-01-27T05:25:00;5.55;;;4.90;;
7737;SDS011;29398;45.328;5.558;2024-01-27T05:26:04;5.32;;;4.82;;
7737;SDS011;29398;45.328;5.558;2024-01-27T05:27:07;5.20;;;4.70;;
7737;SDS011;29398;45.328;5.558;2024-01-27T05:28:08;5.18;;;4.68;;
7737;SDS011;29398;45.328;5.558;2024-01-27T05:29:10;5.30;;;4.80;;
7737;SDS011;29398;45.328;5.558;2024-01-27T05:30:12;5.75;;;4.70;;
7737;SDS011;29398;45.328;5.558;2024-01-27T05:31:15;5.57;;;5.07;;
7737;SDS011;29398;45.328;5.558;2024-01-27T05:32:16;6.80;;;5.07;;
7737;SDS011;29398;45.328;5.558;2024-01-27T05:33:17;5.53;;;5.03;;
7737;SDS011;29398;45.328;5.558;2024-01-27T05:34:19;5.30;;;4.80;;
7737;SDS011;29398;45.328;5.558;2024-01-27T05:35:21;5.22;;;4.70;;
7737;SDS011;29398;45.328;5.558;2024-01-27T05:36:23;5.63;;;5.05;;
7737;SDS011;29398;45.328;5.558;2024-01-27T05:37:24;5.60;;;4.97;;
7737;SDS011;29398;45.328;5.558;2024-01-27T05:38:25;5.95;;;5.05;;
7737;SDS011;29398;45.328;5.558;2024-01-27T05:39:28;6.28;;;4.90;;
7737;SDS011;29398;45.328;5.558;2024-01-27T05:40:29;5.70;;;5.10;;
7737;SDS011;29398;45.328;5.558;2024-01-27T05:41:32;5.53;;;4.97;;
7737;SDS011;29398;45.328;5.558;2024-01-27T05:42:33;5.93;;;4.85;;
7737;SDS011;29398;45.328;5.558;2024-01-27T05:43:35;5.95;;;5.13;;
7737;SDS011;29398;45.328;5.558;2024-01-27T05:44:36;5.25;;;4.75;;
7737;SDS011;29398;45.328;5.558;2024-01-27T05:45:40;5.22;;;4.72;;
7737;SDS011;29398;45.328;5.558;2024-01-27T05:46:41;5.15;;;4.45;;
7737;SDS011;29398;45.328;5.558;2024-01-27T05:47:43;5.22;;;4.72;;
7737;SDS011;29398;45.328;5.558;2024-01-27T05:48:44;5.25;;;4.75;;
7737;SDS011;29398;45.328;5.558;2024-01-27T05:49:46;5.10;;;4.60;;
7737;SDS011;29398;45.328;5.558;2024-01-27T05:50:54;5.20;;;4.70;;
7737;SDS011;29398;45.328;5.558;2024-01-27T05:51:57;5.47;;;4.95;;
7737;SDS011;29398;45.328;5.558;2024-01-27T05:52:58;5.75;;;5.15;;
7737;SDS011;29398;45.328;5.558;2024-01-27T05:54:00;5.32;;;4.82;;
7737;SDS011;29398;45.328;5.558;2024-01-27T05:55:01;5.47;;;4.95;;
7737;SDS011;29398;45.328;5.558;2024-01-27T05:56:02;5.75;;;5.03;;
7737;SDS011;29398;45.328;5.558;2024-01-27T05:57:05;5.60;;;5.00;;
7737;SDS011;29398;45.328;5.558;2024-01-27T05:58:06;5.28;;;4.70;;
7737;SDS011;29398;45.328;5.558;2024-01-27T05:59:08;5.55;;;4.97;;
7737;SDS011;29398;45.328;5.558;2024-01-27T06:00:10;4.72;;;4.32;;
7737;SDS011;29398;45.328;5.558;2024-01-27T06:01:15;5.93;;;4.80;;
7737;SDS011;29398;45.328;5.558;2024-01-27T06:02:18;4.97;;;4.38;;
7737;SDS011;29398;45.328;5.558;2024-01-27T06:03:19;5.45;;;4.60;;
7737;SDS011;29398;45.328;5.558;2024-01-27T06:04:21;5.35;;;4.80;;
7737;SDS011;29398;45.328;5.558;2024-01-27T06:05:22;6.88;;;4.78;;
7737;SDS011;29398;45.328;5.558;2024-01-27T06:06:24;5.32;;;4.82;;
7737;SDS011;29398;45.328;5.558;2024-01-27T06:07:25;5.85;;;4.72;;
7737;SDS011;29398;45.328;5.558;2024-01-27T06:08:27;6.00;;;5.00;;
7737;SDS011;29398;45.328;5.558;2024-01-27T06:09:29;5.35;;;4.85;;
7737;SDS011;29398;45.328;5.558;2024-01-27T06:10:30;5.47;;;4.72;;
7737;SDS011;29398;45.328;5.558;2024-01-27T06:11:32;5.05;;;4.50;;
7737;SDS011;29398;45.328;5.558;2024-01-27T06:12:33;5.57;;;4.82;;
7737;SDS011;29398;45.328;5.558;2024-01-27T06:13:35;6.00;;;5.30;;
7737;SDS011;29398;45.328;5.558;2024-01-27T06:14:38;5.75;;;5.15;;
7737;SDS011;29398;45.328;5.558;2024-01-27T06:15:40;5.90;;;5.07;;
7737;SDS011;29398;45.328;5.558;2024-01-27T06:16:42;6.90;;;5.03;;
7737;SDS011;29398;45.328;5.558;2024-01-27T06:17:44;5.78;;;5.18;;